sensor_id;sensor_type;location;lat;lon;timestamp;P1;durP1;ratioP1;P2;durP2;ratioP2
10458;SDS011;5277;48.722;8.736;2022-10-20T00:00:02;12.95;;;6.93;;
10458;SDS011;5277;48.722;8.736;2022-10-20T00:02:29;13.75;;;6.82;;
10458;SDS011;5277;48.722;8.736;2022-10-20T00:04:58;17.17;;;7.65;;
10458;SDS011;5277;48.722;8.736;2022-10-20T00:07:26;15.23;;;6.93;;
10458;SDS011;5277;48.722;8.736;2022-10-20T00:09:55;10.45;;;7.55;;
10458;SDS011;5277;48.722;8.736;2022-10-20T00:12:24;15.43;;;8.18;;
10458;SDS011;5277;48.722;8.736;2022-10-20T00:14:53;11.32;;;7.72;;
10458;SDS011;5277;48.722;8.736;2022-10-20T00:17:21;14.68;;;8.43;;
10458;SDS011;5277;48.722;8.736;2022-10-20T00:19:49;12.35;;;7.35;;
10458;SDS011;5277;48.722;8.736;2022-10-20T00:22:24;16.55;;;7.75;;
10458;SDS011;5277;48.722;8.736;2022-10-20T00:24:50;16.88;;;7.50;;
10458;SDS011;5277;48.722;8.736;2022-10-20T00:27:21;11.27;;;7.50;;
10458;SDS011;5277;48.722;8.736;2022-10-20T00:29:53;16.50;;;7.78;;
10458;SDS011;5277;48.722;8.736;2022-10-20T00:32:19;19.90;;;8.27;;
10458;SDS011;5277;48.722;8.736;2022-10-20T00:34:45;13.55;;;8.25;;
10458;SDS011;5277;48.722;8.736;2022-10-20T00:37:13;12.40;;;7.65;;
10458;SDS011;5277;48.722;8.736;2022-10-20T00:39:39;13.32;;;9.07;;
10458;SDS011;5277;48.722;8.736;2022-10-20T00:42:05;14.40;;;9.05;;
10458;SDS011;5277;48.722;8.736;2022-10-20T00:47:23;17.00;;;9.55;;
10458;SDS011;5277;48.722;8.736;2022-10-20T00:50:22;17.05;;;9.55;;
10458;SDS011;5277;48.722;8.736;2022-10-20T00:52:55;12.75;;;9.15;;
10458;SDS011;5277;48.722;8.736;2022-10-20T00:55:22;11.15;;;8.52;;
10458;SDS011;5277;48.722;8.736;2022-10-20T00:57:53;16.10;;;9.05;;
10458;SDS011;5277;48.722;8.736;2022-10-20T01:00:38;17.90;;;9.93;;
10458;SDS011;5277;48.722;8.736;2022-10-20T01:03:33;14.27;;;9.80;;
10458;SDS011;5277;48.722;8.736;2022-10-20T01:06:17;19.13;;;9.45;;
10458;SDS011;5277;48.722;8.736;2022-10-20T01:08:46;15.85;;;9.95;;
10458;SDS011;5277;48.722;8.736;2022-10-20T01:11:14;14.07;;;9.23;;
10458;SDS011;5277;48.722;8.736;2022-10-20T01:19:31;14.82;;;9.85;;
10458;SDS011;5277;48.722;8.736;2022-10-20T01:27:41;12.23;;;9.43;;
10458;SDS011;5277;48.722;8.736;2022-10-20T01:30:18;10.60;;;9.13;;
10458;SDS011;5277;48.722;8.736;2022-10-20T01:35:22;10.80;;;8.70;;
10458;SDS011;5277;48.722;8.736;2022-10-20T01:38:03;15.13;;;8.48;;
10458;SDS011;5277;48.722;8.736;2022-10-20T01:40:35;12.55;;;8.98;;
10458;SDS011;5277;48.722;8.736;2022-10-20T01:43:12;12.88;;;9.20;;
10458;SDS011;5277;48.722;8.736;2022-10-20T01:45:42;11.02;;;9.23;;
10458;SDS011;5277;48.722;8.736;2022-10-20T01:48:11;14.52;;;9.40;;
10458;SDS011;5277;48.722;8.736;2022-10-20T01:50:40;20.50;;;10.57;;
10458;SDS011;5277;48.722;8.736;2022-10-20T01:53:06;13.60;;;9.88;;
10458;SDS011;5277;48.722;8.736;2022-10-20T01:55:35;12.82;;;9.07;;
10458;SDS011;5277;48.722;8.736;2022-10-20T02:00:53;15.27;;;8.82;;
10458;SDS011;5277;48.722;8.736;2022-10-20T02:03:31;13.13;;;8.60;;
10458;SDS011;5277;48.722;8.736;2022-10-20T02:08:48;12.18;;;8.63;;
10458;SDS011;5277;48.722;8.736;2022-10-20T02:11:25;12.48;;;8.07;;
10458;SDS011;5277;48.722;8.736;2022-10-20T02:14:08;13.52;;;8.27;;
10458;SDS011;5277;48.722;8.736;2022-10-20T02:16:42;10.85;;;7.85;;
10458;SDS011;5277;48.722;8.736;2022-10-20T02:19:20;10.05;;;7.78;;
10458;SDS011;5277;48.722;8.736;2022-10-20T02:21:49;8.65;;;7.57;;
10458;SDS011;5277;48.722;8.736;2022-10-20T02:24:20;9.15;;;7.03;;
10458;SDS011;5277;48.722;8.736;2022-10-20T02:26:53;15.13;;;7.60;;
10458;SDS011;5277;48.722;8.736;2022-10-20T02:29:27;15.13;;;7.55;;
10458;SDS011;5277;48.722;8.736;2022-10-20T02:31:58;12.48;;;7.47;;
10458;SDS011;5277;48.722;8.736;2022-10-20T02:34:27;8.18;;;7.30;;
10458;SDS011;5277;48.722;8.736;2022-10-20T02:36:57;9.13;;;7.72;;
10458;SDS011;5277;48.722;8.736;2022-10-20T02:39:23;9.40;;;7.43;;
10458;SDS011;5277;48.722;8.736;2022-10-20T02:41:50;8.75;;;7.13;;
10458;SDS011;5277;48.722;8.736;2022-10-20T02:44:19;12.80;;;7.13;;
10458;SDS011;5277;48.722;8.736;2022-10-20T02:46:48;9.45;;;7.13;;
10458;SDS011;5277;48.722;8.736;2022-10-20T02:49:13;8.90;;;6.07;;
10458;SDS011;5277;48.722;8.736;2022-10-20T02:51:39;9.48;;;6.70;;
10458;SDS011;5277;48.722;8.736;2022-10-20T02:54:05;10.55;;;6.43;;
10458;SDS011;5277;48.722;8.736;2022-10-20T02:56:33;12.00;;;6.78;;
10458;SDS011;5277;48.722;8.736;2022-10-20T02:59:42;7.65;;;6.20;;
10458;SDS011;5277;48.722;8.736;2022-10-20T03:01:57;7.88;;;6.15;;
10458;SDS011;5277;48.722;8.736;2022-10-20T03:04:23;8.18;;;6.57;;
10458;SDS011;5277;48.722;8.736;2022-10-20T03:06:49;11.30;;;6.60;;
10458;SDS011;5277;48.722;8.736;2022-10-20T03:09:15;16.00;;;6.90;;
10458;SDS011;5277;48.722;8.736;2022-10-20T03:11:41;13.18;;;6.70;;
10458;SDS011;5277;48.722;8.736;2022-10-20T03:14:07;6.78;;;6.07;;
10458;SDS011;5277;48.722;8.736;2022-10-20T03:16:32;10.98;;;6.65;;
10458;SDS011;5277;48.722;8.736;2022-10-20T03:18:58;7.32;;;6.03;;
10458;SDS011;5277;48.722;8.736;2022-10-20T03:21:24;14.55;;;6.45;;
10458;SDS011;5277;48.722;8.736;2022-10-20T03:23:49;8.40;;;6.60;;
10458;SDS011;5277;48.722;8.736;2022-10-20T03:26:15;7.82;;;6.28;;
10458;SDS011;5277;48.722;8.736;2022-10-20T03:28:41;11.18;;;5.97;;
10458;SDS011;5277;48.722;8.736;2022-10-20T03:31:07;7.68;;;6.55;;
10458;SDS011;5277;48.722;8.736;2022-10-20T03:33:33;7.30;;;6.30;;
10458;SDS011;5277;48.722;8.736;2022-10-20T03:35:59;6.55;;;5.93;;
10458;SDS011;5277;48.722;8.736;2022-10-20T03:38:25;10.82;;;6.03;;
10458;SDS011;5277;48.722;8.736;2022-10-20T03:40:51;6.95;;;6.15;;
10458;SDS011;5277;48.722;8.736;2022-10-20T03:43:32;10.35;;;6.30;;
10458;SDS011;5277;48.722;8.736;2022-10-20T03:46:01;8.57;;;6.22;;
10458;SDS011;5277;48.722;8.736;2022-10-20T03:48:32;9.30;;;6.25;;
10458;SDS011;5277;48.722;8.736;2022-10-20T03:50:58;7.60;;;5.57;;
10458;SDS011;5277;48.722;8.736;2022-10-20T03:53:25;11.00;;;6.68;;
10458;SDS011;5277;48.722;8.736;2022-10-20T03:55:51;9.57;;;6.10;;
10458;SDS011;5277;48.722;8.736;2022-10-20T03:58:17;9.55;;;5.95;;
10458;SDS011;5277;48.722;8.736;2022-10-20T04:00:43;8.50;;;6.50;;
10458;SDS011;5277;48.722;8.736;2022-10-20T04:03:09;7.78;;;6.00;;
10458;SDS011;5277;48.722;8.736;2022-10-20T04:05:35;9.48;;;6.18;;
10458;SDS011;5277;48.722;8.736;2022-10-20T04:08:01;8.40;;;6.50;;
10458;SDS011;5277;48.722;8.736;2022-10-20T04:10:28;8.60;;;5.70;;
10458;SDS011;5277;48.722;8.736;2022-10-20T04:12:57;10.38;;;6.20;;
10458;SDS011;5277;48.722;8.736;2022-10-20T04:15:41;6.82;;;6.13;;
10458;SDS011;5277;48.722;8.736;2022-10-20T04:18:38;9.30;;;6.22;;
10458;SDS011;5277;48.722;8.736;2022-10-20T04:21:04;8.90;;;6.45;;
10458;SDS011;5277;48.722;8.736;2022-10-20T04:23:30;9.63;;;6.32;;
10458;SDS011;5277;48.722;8.736;2022-10-20T04:25:56;10.15;;;6.10;;
10458;SDS011;5277;48.722;8.736;2022-10-20T04:28:22;10.82;;;6.82;;
10458;SDS011;5277;48.722;8.736;2022-10-20T04:30:47;8.73;;;6.32;;
10458;SDS011;5277;48.722;8.736;2022-10-20T04:33:13;9.35;;;6.00;;
10458;SDS011;5277;48.722;8.736;2022-10-20T04:35:39;7.63;;;6.05;;
10458;SDS011;5277;48.722;8.736;2022-10-20T04:38:08;9.20;;;6.38;;
10458;SDS011;5277;48.722;8.736;2022-10-20T04:40:37;11.00;;;7.22;;
10458;SDS011;5277;48.722;8.736;2022-10-20T04:43:03;10.93;;;6.57;;
10458;SDS011;5277;48.722;8.736;2022-10-20T04:45:29;9.23;;;6.03;;
10458;SDS011;5277;48.722;8.736;2022-10-20T04:48:05;10.02;;;6.32;;
10458;SDS011;5277;48.722;8.736;2022-10-20T04:50:58;8.93;;;6.00;;
10458;SDS011;5277;48.722;8.736;2022-10-20T04:53:26;11.52;;;5.95;;
10458;SDS011;5277;48.722;8.736;2022-10-20T04:55:54;9.48;;;6.47;;
10458;SDS011;5277;48.722;8.736;2022-10-20T04:58:24;10.73;;;5.93;;
10458;SDS011;5277;48.722;8.736;2022-10-20T05:00:50;8.13;;;5.45;;
10458;SDS011;5277;48.722;8.736;2022-10-20T05:03:16;10.88;;;6.55;;
10458;SDS011;5277;48.722;8.736;2022-10-20T05:05:43;12.07;;;6.00;;
10458;SDS011;5277;48.722;8.736;2022-10-20T05:08:12;11.15;;;6.53;;
10458;SDS011;5277;48.722;8.736;2022-10-20T05:10:38;13.40;;;6.85;;
10458;SDS011;5277;48.722;8.736;2022-10-20T05:13:04;8.65;;;6.35;;
10458;SDS011;5277;48.722;8.736;2022-10-20T05:15:30;11.32;;;6.90;;
10458;SDS011;5277;48.722;8.736;2022-10-20T05:17:56;10.77;;;6.03;;
10458;SDS011;5277;48.722;8.736;2022-10-20T05:20:22;10.82;;;6.78;;
10458;SDS011;5277;48.722;8.736;2022-10-20T05:22:47;11.30;;;7.13;;
10458;SDS011;5277;48.722;8.736;2022-10-20T05:25:13;9.43;;;6.38;;
10458;SDS011;5277;48.722;8.736;2022-10-20T05:27:39;9.18;;;6.70;;
10458;SDS011;5277;48.722;8.736;2022-10-20T05:30:05;8.13;;;6.18;;
10458;SDS011;5277;48.722;8.736;2022-10-20T05:32:31;8.75;;;6.57;;
10458;SDS011;5277;48.722;8.736;2022-10-20T05:34:57;12.13;;;6.20;;
10458;SDS011;5277;48.722;8.736;2022-10-20T05:37:22;8.63;;;6.40;;
10458;SDS011;5277;48.722;8.736;2022-10-20T05:39:48;9.43;;;6.35;;
10458;SDS011;5277;48.722;8.736;2022-10-20T05:42:14;10.32;;;6.50;;
10458;SDS011;5277;48.722;8.736;2022-10-20T05:44:40;10.13;;;6.65;;
10458;SDS011;5277;48.722;8.736;2022-10-20T05:47:05;12.77;;;7.22;;
10458;SDS011;5277;48.722;8.736;2022-10-20T05:49:31;8.93;;;6.82;;
10458;SDS011;5277;48.722;8.736;2022-10-20T05:51:57;13.75;;;7.28;;
10458;SDS011;5277;48.722;8.736;2022-10-20T05:57:06;12.07;;;6.82;;
10458;SDS011;5277;48.722;8.736;2022-10-20T05:59:43;10.50;;;7.15;;
10458;SDS011;5277;48.722;8.736;2022-10-20T06:02:25;11.57;;;6.85;;
10458;SDS011;5277;48.722;8.736;2022-10-20T06:05:00;8.73;;;6.75;;
10458;SDS011;5277;48.722;8.736;2022-10-20T06:07:29;18.35;;;7.10;;
10458;SDS011;5277;48.722;8.736;2022-10-20T06:10:06;12.02;;;6.78;;
10458;SDS011;5277;48.722;8.736;2022-10-20T06:12:33;17.60;;;7.18;;
10458;SDS011;5277;48.722;8.736;2022-10-20T06:14:59;8.00;;;6.40;;
10458;SDS011;5277;48.722;8.736;2022-10-20T06:17:31;12.10;;;7.28;;
10458;SDS011;5277;48.722;8.736;2022-10-20T06:20:00;9.43;;;7.22;;
10458;SDS011;5277;48.722;8.736;2022-10-20T06:22:28;11.93;;;7.53;;
10458;SDS011;5277;48.722;8.736;2022-10-20T06:25:01;11.35;;;7.50;;
10458;SDS011;5277;48.722;8.736;2022-10-20T06:27:27;10.90;;;6.80;;
10458;SDS011;5277;48.722;8.736;2022-10-20T06:29:53;9.55;;;5.90;;
10458;SDS011;5277;48.722;8.736;2022-10-20T06:32:18;13.63;;;7.22;;
10458;SDS011;5277;48.722;8.736;2022-10-20T06:34:44;13.43;;;7.40;;
10458;SDS011;5277;48.722;8.736;2022-10-20T06:37:25;9.68;;;7.15;;
10458;SDS011;5277;48.722;8.736;2022-10-20T06:40:23;12.05;;;7.60;;
10458;SDS011;5277;48.722;8.736;2022-10-20T06:43:07;12.18;;;7.32;;
10458;SDS011;5277;48.722;8.736;2022-10-20T06:45:52;9.65;;;7.00;;
10458;SDS011;5277;48.722;8.736;2022-10-20T06:48:36;11.40;;;7.70;;
10458;SDS011;5277;48.722;8.736;2022-10-20T06:54:06;10.63;;;7.78;;
10458;SDS011;5277;48.722;8.736;2022-10-20T06:56:39;9.05;;;7.20;;
10458;SDS011;5277;48.722;8.736;2022-10-20T06:59:19;9.52;;;7.72;;
10458;SDS011;5277;48.722;8.736;2022-10-20T07:02:18;10.88;;;7.70;;
10458;SDS011;5277;48.722;8.736;2022-10-20T07:04:50;10.57;;;7.53;;
10458;SDS011;5277;48.722;8.736;2022-10-20T07:07:27;14.73;;;7.70;;
10458;SDS011;5277;48.722;8.736;2022-10-20T07:10:10;12.05;;;7.43;;
10458;SDS011;5277;48.722;8.736;2022-10-20T07:16:12;10.98;;;7.10;;
10458;SDS011;5277;48.722;8.736;2022-10-20T07:25:08;12.38;;;7.32;;
10458;SDS011;5277;48.722;8.736;2022-10-20T07:33:25;11.35;;;7.35;;
10458;SDS011;5277;48.722;8.736;2022-10-20T07:35:52;8.05;;;7.15;;
10458;SDS011;5277;48.722;8.736;2022-10-20T07:38:30;8.77;;;7.35;;
10458;SDS011;5277;48.722;8.736;2022-10-20T07:41:00;9.25;;;7.22;;
10458;SDS011;5277;48.722;8.736;2022-10-20T07:49:22;9.77;;;7.05;;
10458;SDS011;5277;48.722;8.736;2022-10-20T07:51:49;12.65;;;7.70;;
10458;SDS011;5277;48.722;8.736;2022-10-20T07:54:18;14.85;;;8.10;;
10458;SDS011;5277;48.722;8.736;2022-10-20T07:56:45;10.55;;;7.50;;
10458;SDS011;5277;48.722;8.736;2022-10-20T07:59:11;15.00;;;8.05;;
10458;SDS011;5277;48.722;8.736;2022-10-20T08:01:59;10.73;;;7.85;;
10458;SDS011;5277;48.722;8.736;2022-10-20T08:08:05;9.07;;;6.90;;
10458;SDS011;5277;48.722;8.736;2022-10-20T08:10:37;10.68;;;7.68;;
10458;SDS011;5277;48.722;8.736;2022-10-20T08:26:42;11.60;;;8.15;;
10458;SDS011;5277;48.722;8.736;2022-10-20T08:29:20;11.40;;;8.52;;
10458;SDS011;5277;48.722;8.736;2022-10-20T08:31:53;15.25;;;9.35;;
10458;SDS011;5277;48.722;8.736;2022-10-20T08:34:38;10.77;;;8.27;;
10458;SDS011;5277;48.722;8.736;2022-10-20T08:37:15;12.32;;;8.88;;
10458;SDS011;5277;48.722;8.736;2022-10-20T08:42:40;13.32;;;9.10;;
10458;SDS011;5277;48.722;8.736;2022-10-20T08:45:18;18.63;;;10.05;;
10458;SDS011;5277;48.722;8.736;2022-10-20T08:51:10;15.18;;;9.80;;
10458;SDS011;5277;48.722;8.736;2022-10-20T08:53:45;14.45;;;9.88;;
10458;SDS011;5277;48.722;8.736;2022-10-20T08:56:19;12.07;;;8.73;;
10458;SDS011;5277;48.722;8.736;2022-10-20T08:58:58;13.57;;;9.38;;
10458;SDS011;5277;48.722;8.736;2022-10-20T09:01:32;15.88;;;8.27;;
10458;SDS011;5277;48.722;8.736;2022-10-20T09:06:44;13.65;;;9.02;;
10458;SDS011;5277;48.722;8.736;2022-10-20T09:09:21;12.88;;;9.00;;
10458;SDS011;5277;48.722;8.736;2022-10-20T09:11:54;13.95;;;9.35;;
10458;SDS011;5277;48.722;8.736;2022-10-20T09:14:30;12.13;;;8.50;;
10458;SDS011;5277;48.722;8.736;2022-10-20T09:17:15;14.20;;;8.65;;
10458;SDS011;5277;48.722;8.736;2022-10-20T09:19:48;13.63;;;9.43;;
10458;SDS011;5277;48.722;8.736;2022-10-20T09:22:19;13.52;;;8.75;;
10458;SDS011;5277;48.722;8.736;2022-10-20T09:25:11;15.75;;;9.48;;
10458;SDS011;5277;48.722;8.736;2022-10-20T09:27:45;14.45;;;8.50;;
10458;SDS011;5277;48.722;8.736;2022-10-20T09:30:30;17.75;;;8.68;;
10458;SDS011;5277;48.722;8.736;2022-10-20T09:33:01;15.77;;;8.77;;
10458;SDS011;5277;48.722;8.736;2022-10-20T09:36:00;14.05;;;8.55;;
10458;SDS011;5277;48.722;8.736;2022-10-20T09:38:41;12.73;;;8.70;;
10458;SDS011;5277;48.722;8.736;2022-10-20T09:43:52;17.73;;;8.85;;
10458;SDS011;5277;48.722;8.736;2022-10-20T09:46:23;17.02;;;8.77;;
10458;SDS011;5277;48.722;8.736;2022-10-20T09:48:55;18.42;;;9.25;;
10458;SDS011;5277;48.722;8.736;2022-10-20T09:51:25;12.40;;;9.18;;
10458;SDS011;5277;48.722;8.736;2022-10-20T09:54:14;13.52;;;8.82;;
10458;SDS011;5277;48.722;8.736;2022-10-20T09:56:47;16.40;;;9.60;;
10458;SDS011;5277;48.722;8.736;2022-10-20T09:59:21;16.17;;;9.95;;
10458;SDS011;5277;48.722;8.736;2022-10-20T10:02:32;15.60;;;8.93;;
10458;SDS011;5277;48.722;8.736;2022-10-20T10:05:13;17.15;;;8.73;;
10458;SDS011;5277;48.722;8.736;2022-10-20T10:08:02;13.10;;;8.60;;
10458;SDS011;5277;48.722;8.736;2022-10-20T10:13:42;11.75;;;8.68;;
10458;SDS011;5277;48.722;8.736;2022-10-20T10:16:25;16.27;;;9.75;;
10458;SDS011;5277;48.722;8.736;2022-10-20T10:19:19;15.75;;;8.25;;
10458;SDS011;5277;48.722;8.736;2022-10-20T10:22:27;11.82;;;8.50;;
10458;SDS011;5277;48.722;8.736;2022-10-20T10:25:23;11.20;;;8.55;;
10458;SDS011;5277;48.722;8.736;2022-10-20T10:32:29;20.38;;;8.73;;
10458;SDS011;5277;48.722;8.736;2022-10-20T10:38:07;20.08;;;8.23;;
10458;SDS011;5277;48.722;8.736;2022-10-20T10:55:17;13.35;;;8.18;;
10458;SDS011;5277;48.722;8.736;2022-10-20T10:58:03;12.63;;;7.65;;
10458;SDS011;5277;48.722;8.736;2022-10-20T11:03:47;12.25;;;8.68;;
10458;SDS011;5277;48.722;8.736;2022-10-20T11:49:13;20.63;;;6.10;;
10458;SDS011;5277;48.722;8.736;2022-10-20T11:58:28;17.35;;;5.90;;
10458;SDS011;5277;48.722;8.736;2022-10-20T12:07:10;8.63;;;5.05;;
10458;SDS011;5277;48.722;8.736;2022-10-20T12:10:21;6.75;;;5.00;;
10458;SDS011;5277;48.722;8.736;2022-10-20T12:13:45;13.02;;;5.60;;
10458;SDS011;5277;48.722;8.736;2022-10-20T12:27:00;9.52;;;6.25;;
10458;SDS011;5277;48.722;8.736;2022-10-20T12:34:59;12.27;;;7.00;;
10458;SDS011;5277;48.722;8.736;2022-10-20T12:41:36;16.67;;;6.57;;
10458;SDS011;5277;48.722;8.736;2022-10-20T12:44:42;14.43;;;6.90;;
10458;SDS011;5277;48.722;8.736;2022-10-20T12:51:15;8.98;;;5.45;;
10458;SDS011;5277;48.722;8.736;2022-10-20T12:57:32;13.45;;;4.70;;
10458;SDS011;5277;48.722;8.736;2022-10-20T13:13:56;9.60;;;4.70;;
10458;SDS011;5277;48.722;8.736;2022-10-20T13:16:43;10.95;;;5.05;;
10458;SDS011;5277;48.722;8.736;2022-10-20T13:19:35;13.57;;;5.20;;
10458;SDS011;5277;48.722;8.736;2022-10-20T13:42:04;14.77;;;5.65;;
10458;SDS011;5277;48.722;8.736;2022-10-20T13:47:59;24.83;;;6.22;;
10458;SDS011;5277;48.722;8.736;2022-10-20T13:54:24;15.35;;;5.65;;
10458;SDS011;5277;48.722;8.736;2022-10-20T14:21:18;13.98;;;6.03;;
10458;SDS011;5277;48.722;8.736;2022-10-20T14:41:42;17.70;;;5.80;;
10458;SDS011;5277;48.722;8.736;2022-10-20T14:48:30;13.90;;;5.75;;
10458;SDS011;5277;48.722;8.736;2022-10-20T14:56:50;17.48;;;5.30;;
10458;SDS011;5277;48.722;8.736;2022-10-20T14:59:31;15.57;;;5.93;;
10458;SDS011;5277;48.722;8.736;2022-10-20T15:02:03;8.77;;;5.30;;
10458;SDS011;5277;48.722;8.736;2022-10-20T15:04:37;10.38;;;5.82;;
10458;SDS011;5277;48.722;8.736;2022-10-20T15:07:22;14.00;;;5.57;;
10458;SDS011;5277;48.722;8.736;2022-10-20T15:09:59;18.42;;;5.60;;
10458;SDS011;5277;48.722;8.736;2022-10-20T15:15:03;20.40;;;6.22;;
10458;SDS011;5277;48.722;8.736;2022-10-20T15:17:48;12.98;;;5.88;;
10458;SDS011;5277;48.722;8.736;2022-10-20T15:22:53;22.05;;;5.65;;
10458;SDS011;5277;48.722;8.736;2022-10-20T15:25:24;12.23;;;6.05;;
10458;SDS011;5277;48.722;8.736;2022-10-20T15:27:52;12.73;;;5.78;;
10458;SDS011;5277;48.722;8.736;2022-10-20T15:30:20;11.07;;;5.57;;
10458;SDS011;5277;48.722;8.736;2022-10-20T15:32:48;21.25;;;6.20;;
10458;SDS011;5277;48.722;8.736;2022-10-20T15:35:17;15.13;;;6.53;;
10458;SDS011;5277;48.722;8.736;2022-10-20T15:37:47;15.05;;;5.95;;
10458;SDS011;5277;48.722;8.736;2022-10-20T15:40:15;8.82;;;6.45;;
10458;SDS011;5277;48.722;8.736;2022-10-20T15:42:41;11.32;;;6.15;;
10458;SDS011;5277;48.722;8.736;2022-10-20T15:45:29;14.48;;;5.88;;
10458;SDS011;5277;48.722;8.736;2022-10-20T15:48:12;14.82;;;5.80;;
10458;SDS011;5277;48.722;8.736;2022-10-20T15:51:00;14.73;;;5.95;;
10458;SDS011;5277;48.722;8.736;2022-10-20T15:53:39;19.33;;;6.20;;
10458;SDS011;5277;48.722;8.736;2022-10-20T15:56:19;11.88;;;7.10;;
10458;SDS011;5277;48.722;8.736;2022-10-20T15:59:02;12.85;;;6.25;;
10458;SDS011;5277;48.722;8.736;2022-10-20T16:01:37;14.95;;;7.53;;
10458;SDS011;5277;48.722;8.736;2022-10-20T16:04:20;16.42;;;7.07;;
10458;SDS011;5277;48.722;8.736;2022-10-20T16:06:50;19.45;;;8.13;;
10458;SDS011;5277;48.722;8.736;2022-10-20T16:09:18;14.93;;;6.85;;
10458;SDS011;5277;48.722;8.736;2022-10-20T16:11:47;18.08;;;7.60;;
10458;SDS011;5277;48.722;8.736;2022-10-20T16:14:14;16.80;;;6.80;;
10458;SDS011;5277;48.722;8.736;2022-10-20T16:16:40;15.30;;;6.70;;
10458;SDS011;5277;48.722;8.736;2022-10-20T16:19:08;17.02;;;6.75;;
10458;SDS011;5277;48.722;8.736;2022-10-20T16:21:35;13.38;;;5.95;;
10458;SDS011;5277;48.722;8.736;2022-10-20T16:24:00;13.05;;;6.63;;
10458;SDS011;5277;48.722;8.736;2022-10-20T16:26:26;16.92;;;6.35;;
10458;SDS011;5277;48.722;8.736;2022-10-20T16:28:52;19.15;;;7.05;;
10458;SDS011;5277;48.722;8.736;2022-10-20T16:31:17;22.38;;;6.40;;
10458;SDS011;5277;48.722;8.736;2022-10-20T16:33:46;20.27;;;6.13;;
10458;SDS011;5277;48.722;8.736;2022-10-20T16:36:13;18.33;;;6.80;;
10458;SDS011;5277;48.722;8.736;2022-10-20T16:38:40;15.38;;;6.70;;
10458;SDS011;5277;48.722;8.736;2022-10-20T16:41:08;15.85;;;6.60;;
10458;SDS011;5277;48.722;8.736;2022-10-20T16:43:36;9.75;;;6.40;;
10458;SDS011;5277;48.722;8.736;2022-10-20T16:46:09;19.45;;;6.45;;
10458;SDS011;5277;48.722;8.736;2022-10-20T16:48:48;9.77;;;6.00;;
10458;SDS011;5277;48.722;8.736;2022-10-20T16:51:14;11.00;;;6.22;;
10458;SDS011;5277;48.722;8.736;2022-10-20T16:53:44;18.92;;;6.85;;
10458;SDS011;5277;48.722;8.736;2022-10-20T16:56:17;15.48;;;6.85;;
10458;SDS011;5277;48.722;8.736;2022-10-20T16:58:48;10.00;;;6.63;;
10458;SDS011;5277;48.722;8.736;2022-10-20T17:01:15;12.68;;;6.57;;
10458;SDS011;5277;48.722;8.736;2022-10-20T17:03:47;17.50;;;6.75;;
10458;SDS011;5277;48.722;8.736;2022-10-20T17:06:27;11.10;;;6.07;;
10458;SDS011;5277;48.722;8.736;2022-10-20T17:08:53;18.45;;;7.35;;
10458;SDS011;5277;48.722;8.736;2022-10-20T17:11:20;11.50;;;6.70;;
10458;SDS011;5277;48.722;8.736;2022-10-20T17:13:51;13.88;;;7.10;;
10458;SDS011;5277;48.722;8.736;2022-10-20T17:16:18;15.45;;;7.57;;
10458;SDS011;5277;48.722;8.736;2022-10-20T17:26:43;24.15;;;7.30;;
10458;SDS011;5277;48.722;8.736;2022-10-20T17:29:10;16.52;;;7.30;;
10458;SDS011;5277;48.722;8.736;2022-10-20T17:31:36;14.63;;;7.07;;
10458;SDS011;5277;48.722;8.736;2022-10-20T17:34:02;11.32;;;7.18;;
10458;SDS011;5277;48.722;8.736;2022-10-20T17:36:28;14.80;;;7.50;;
10458;SDS011;5277;48.722;8.736;2022-10-20T17:39:04;13.02;;;7.05;;
10458;SDS011;5277;48.722;8.736;2022-10-20T17:41:32;13.63;;;7.43;;
10458;SDS011;5277;48.722;8.736;2022-10-20T17:43:59;15.30;;;7.22;;
10458;SDS011;5277;48.722;8.736;2022-10-20T17:46:26;19.73;;;6.75;;
10458;SDS011;5277;48.722;8.736;2022-10-20T17:48:52;18.90;;;7.03;;
10458;SDS011;5277;48.722;8.736;2022-10-20T17:51:22;17.50;;;7.07;;
10458;SDS011;5277;48.722;8.736;2022-10-20T17:53:49;21.23;;;8.13;;
10458;SDS011;5277;48.722;8.736;2022-10-20T17:56:17;13.63;;;7.75;;
10458;SDS011;5277;48.722;8.736;2022-10-20T17:58:45;17.13;;;7.35;;
10458;SDS011;5277;48.722;8.736;2022-10-20T18:01:16;21.30;;;7.07;;
10458;SDS011;5277;48.722;8.736;2022-10-20T18:03:45;14.20;;;7.82;;
10458;SDS011;5277;48.722;8.736;2022-10-20T18:06:16;24.92;;;7.30;;
10458;SDS011;5277;48.722;8.736;2022-10-20T18:08:44;20.83;;;8.13;;
10458;SDS011;5277;48.722;8.736;2022-10-20T18:11:11;12.43;;;8.25;;
10458;SDS011;5277;48.722;8.736;2022-10-20T18:13:39;16.48;;;8.60;;
10458;SDS011;5277;48.722;8.736;2022-10-20T18:16:08;20.63;;;9.20;;
10458;SDS011;5277;48.722;8.736;2022-10-20T18:18:36;15.93;;;8.68;;
10458;SDS011;5277;48.722;8.736;2022-10-20T18:21:03;23.90;;;9.57;;
10458;SDS011;5277;48.722;8.736;2022-10-20T18:23:29;21.38;;;10.82;;
10458;SDS011;5277;48.722;8.736;2022-10-20T18:25:56;17.02;;;8.95;;
10458;SDS011;5277;48.722;8.736;2022-10-20T18:28:27;18.20;;;10.00;;
10458;SDS011;5277;48.722;8.736;2022-10-20T18:30:52;21.70;;;10.73;;
10458;SDS011;5277;48.722;8.736;2022-10-20T18:33:30;23.95;;;9.98;;
10458;SDS011;5277;48.722;8.736;2022-10-20T18:35:55;18.73;;;10.98;;
10458;SDS011;5277;48.722;8.736;2022-10-20T18:38:25;19.67;;;11.02;;
10458;SDS011;5277;48.722;8.736;2022-10-20T18:40:51;28.58;;;10.65;;
10458;SDS011;5277;48.722;8.736;2022-10-20T18:43:16;22.70;;;10.73;;
10458;SDS011;5277;48.722;8.736;2022-10-20T18:45:49;19.05;;;9.98;;
10458;SDS011;5277;48.722;8.736;2022-10-20T18:48:15;21.77;;;10.13;;
10458;SDS011;5277;48.722;8.736;2022-10-20T18:50:41;24.27;;;9.38;;
10458;SDS011;5277;48.722;8.736;2022-10-20T18:53:07;31.90;;;10.50;;
10458;SDS011;5277;48.722;8.736;2022-10-20T18:55:33;24.10;;;10.77;;
10458;SDS011;5277;48.722;8.736;2022-10-20T18:57:59;20.95;;;11.05;;
10458;SDS011;5277;48.722;8.736;2022-10-20T19:00:25;22.67;;;12.20;;
10458;SDS011;5277;48.722;8.736;2022-10-20T19:02:51;18.80;;;11.88;;
10458;SDS011;5277;48.722;8.736;2022-10-20T19:05:17;26.50;;;11.90;;
10458;SDS011;5277;48.722;8.736;2022-10-20T19:07:43;32.58;;;11.35;;
10458;SDS011;5277;48.722;8.736;2022-10-20T19:10:09;28.38;;;12.10;;
10458;SDS011;5277;48.722;8.736;2022-10-20T19:12:35;23.30;;;11.60;;
10458;SDS011;5277;48.722;8.736;2022-10-20T19:15:03;31.48;;;13.25;;
10458;SDS011;5277;48.722;8.736;2022-10-20T19:17:31;27.90;;;11.40;;
10458;SDS011;5277;48.722;8.736;2022-10-20T19:19:57;28.42;;;11.70;;
10458;SDS011;5277;48.722;8.736;2022-10-20T19:22:23;26.27;;;10.95;;
10458;SDS011;5277;48.722;8.736;2022-10-20T19:24:48;26.92;;;11.80;;
10458;SDS011;5277;48.722;8.736;2022-10-20T19:27:16;25.38;;;12.57;;
10458;SDS011;5277;48.722;8.736;2022-10-20T19:29:42;26.55;;;11.32;;
10458;SDS011;5277;48.722;8.736;2022-10-20T19:32:10;26.35;;;12.13;;
10458;SDS011;5277;48.722;8.736;2022-10-20T19:34:37;37.75;;;12.82;;
10458;SDS011;5277;48.722;8.736;2022-10-20T19:37:04;24.85;;;13.02;;
10458;SDS011;5277;48.722;8.736;2022-10-20T19:39:35;27.35;;;13.18;;
10458;SDS011;5277;48.722;8.736;2022-10-20T19:42:03;30.63;;;13.68;;
10458;SDS011;5277;48.722;8.736;2022-10-20T19:44:30;27.13;;;12.32;;
10458;SDS011;5277;48.722;8.736;2022-10-20T19:46:56;21.85;;;11.32;;
10458;SDS011;5277;48.722;8.736;2022-10-20T19:58:10;19.15;;;10.40;;
10458;SDS011;5277;48.722;8.736;2022-10-20T20:00:36;19.00;;;10.02;;
10458;SDS011;5277;48.722;8.736;2022-10-20T20:03:06;24.67;;;9.73;;
10458;SDS011;5277;48.722;8.736;2022-10-20T20:05:39;19.25;;;10.02;;
10458;SDS011;5277;48.722;8.736;2022-10-20T20:08:05;28.98;;;10.52;;
10458;SDS011;5277;48.722;8.736;2022-10-20T20:10:31;17.75;;;10.05;;
10458;SDS011;5277;48.722;8.736;2022-10-20T20:12:57;24.85;;;10.57;;
10458;SDS011;5277;48.722;8.736;2022-10-20T20:15:24;15.77;;;9.63;;
10458;SDS011;5277;48.722;8.736;2022-10-20T20:17:50;34.00;;;11.65;;
10458;SDS011;5277;48.722;8.736;2022-10-20T20:20:15;25.52;;;10.52;;